Alliance, NC

12:05 PM EDT on April 19, 2015 (GMT -0400)
APRSWXNET | | Change Station
CLOSE
Current Station
Personal Weather Station
Location: Arapahoe, NC
Elevation: 6 ft
Nearby Weather Stations

Elev 6 ft 35.03 °N, 76.83 °W | Updated 34 minutes ago

Overcast
Overcast
68 °F
Feels Like 68 °F
N
2
Wind Variable Wind from ENE
Gusts 5.0 mph

Today
High -- | Low -- °F
--% Chance of Precip.
Yesterday
High -- | Low -- °F
Precip. -- in
6:30 AM 7:42 PM
New Moon, 1% visible
Pressure 30.03 in
Visibility 10.0 miles
Clouds Few 2400 ft
Mostly Cloudy 3200 ft
Overcast 7500 ft
Dew Point 64 °F
Humidity 87%
Rainfall in
Snow Depth Not available.
UV 3 out of 12
Pollen 8.00 out of 12
Air Quality Not available.
Flu Activity Sporadic
METAR KEWN 191554Z 10008KT 10SM FEW024 BKN032 OVC075 23/17 A3003 RMK AO2 SLP169 T02330167

More Conditions Fewer Conditions

Pressure 30.03 in
Visibility 10.0 miles
Clouds Few 2400 ft
Mostly Cloudy 3200 ft
Overcast 7500 ft
Dew Point 64 °F
Humidity 87%
Rainfall in
Snow Depth Not available.
UV 3 out of 12
Pollen 8.00 out of 12
Air Quality Not available.
Flu Activity Sporadic
METAR KEWN 191554Z 10008KT 10SM FEW024 BKN032 OVC075 23/17 A3003 RMK AO2 SLP169 T02330167

More Conditions Fewer Conditions

10-Day Weather Forecast

Almanac

Astronomy

Apr. 19, 2015 Rise Set
Actual Time
Civil Twilight
Nautical Twilight
Astronomical Twilight
Moon
Length of Visible Light
Length of Day
Tomorrow will be .
, % of the Moon is Illuminated

Today's Extremes

State Highs State Lows

Community

WunderPhotos

Upload Photos

1,814,842 photos uploaded!

WunderBlogs® & News

Nearby

Air Quality

  Air Quality AQ Index Pollutant
Not available.

Snow Depth

Station Depth Elevation

Earthquake Activity

City Distance Mag. Time & Date
Minimum magnitude displayed is 2.5.

Coastal Water Temperatures

Place Temperature

Stations

Nearby Weather Stations

Station Location Temp. Windchill Dew Point Humidity Wind Precip. Elev Updated Type